Time;durP1;ratioP1;P1;durP2;ratioP2;P2;SDS_P1;SDS_P2;PMS_P1;PMS_P2;Temp;Humidity;BMP_temperature;BMP_pressure;BME280_temperature;BME280_humidity;BME280_pressure;Samples;Min_cycle;Max_cycle;Signal;HPM_P1;HPM_P2
2023/12/20 00:01:00;;;;;;;3.30;1.70;;;9.90;73.00;;;;;;2254143;56;20966;-70
2023/12/20 00:03:26;;;;;;;3.90;1.70;;;9.90;73.00;;;;;;2266417;56;20909;-70
2023/12/20 00:05:53;;;;;;;3.58;1.58;;;9.90;73.00;;;;;;2290921;56;21772;-69
2023/12/20 00:08:20;;;;;;;3.10;1.60;;;9.90;73.00;;;;;;2525047;54;20973;-70
2023/12/20 00:10:46;;;;;;;3.10;1.58;;;9.80;72.90;;;;;;2525767;54;20949;-71
2023/12/20 00:13:12;;;;;;;4.50;1.87;;;9.80;72.90;;;;;;2290314;56;20929;-70
2023/12/20 00:15:39;;;;;;;3.15;1.42;;;9.80;72.80;;;;;;2291121;56;21364;-70
2023/12/20 00:18:05;;;;;;;4.20;1.55;;;9.80;72.90;;;;;;2289866;56;20949;-71
2023/12/20 00:20:32;;;;;;;3.50;1.40;;;9.80;72.90;;;;;;2290409;56;20938;-70
2023/12/20 00:22:58;;;;;;;2.95;1.48;;;9.80;72.90;;;;;;2525186;54;20959;-70
2023/12/20 00:25:24;;;;;;;2.62;1.37;;;9.80;73.00;;;;;;2525480;54;20989;-70
2023/12/20 00:27:52;;;;;;;2.60;1.23;;;9.70;73.00;;;;;;2525812;54;21006;-71
2023/12/20 00:30:19;;;;;;;3.55;1.40;;;9.70;73.10;;;;;;2290154;56;20964;-70
2023/12/20 00:32:48;;;;;;;4.05;1.60;;;9.70;73.10;;;;;;2290808;56;20949;-70
2023/12/20 00:35:14;;;;;;;3.55;1.50;;;9.70;73.20;;;;;;2524762;54;21438;-70
2023/12/20 00:37:41;;;;;;;3.37;1.87;;;9.70;73.30;;;;;;2525094;54;20938;-71
2023/12/20 00:40:07;;;;;;;3.62;1.83;;;9.70;73.30;;;;;;2525680;54;20945;-70
2023/12/20 00:42:34;;;;;;;3.72;1.40;;;9.70;73.30;;;;;;2290016;55;20965;-69
2023/12/20 00:45:00;;;;;;;3.62;1.70;;;9.70;73.30;;;;;;2290056;56;21775;-71
2023/12/20 00:47:28;;;;;;;4.15;1.98;;;9.70;73.30;;;;;;2290118;56;21005;-69
2023/12/20 00:49:54;;;;;;;2.75;1.42;;;9.60;73.30;;;;;;2526534;54;20966;-71
2023/12/20 00:52:22;;;;;;;3.15;1.48;;;9.70;73.40;;;;;;2290450;55;21098;-70
2023/12/20 00:54:48;;;;;;;3.37;1.62;;;9.60;73.40;;;;;;2264943;56;21483;-69
2023/12/20 00:57:15;;;;;;;4.55;1.85;;;9.70;73.50;;;;;;2520619;54;20954;-70
2023/12/20 00:59:42;;;;;;;2.85;1.45;;;9.60;73.40;;;;;;2290713;56;20937;-70
2023/12/20 01:02:09;;;;;;;3.15;1.62;;;9.60;73.50;;;;;;2290063;56;21654;-70
2023/12/20 01:04:46;;;;;;;3.05;1.52;;;9.60;73.50;;;;;;2525350;54;20950;-71
2023/12/20 01:07:16;;;;;;;3.33;1.70;;;9.60;73.50;;;;;;2483203;54;21079;-70
2023/12/20 01:09:42;;;;;;;2.75;1.55;;;9.70;73.70;;;;;;2491686;55;20995;-70
2023/12/20 01:12:08;;;;;;;2.75;1.25;;;9.60;73.70;;;;;;2523443;54;20981;-70
2023/12/20 01:14:35;;;;;;;3.30;1.40;;;9.60;73.70;;;;;;2525224;54;20941;-69
2023/12/20 01:17:01;;;;;;;2.53;1.30;;;9.70;73.80;;;;;;2290699;56;20927;-70
2023/12/20 01:19:29;;;;;;;3.55;1.50;;;9.70;73.80;;;;;;2290932;56;20965;-69
2023/12/20 01:21:56;;;;;;;2.47;1.25;;;9.70;73.90;;;;;;2524872;54;20981;-70
2023/12/20 01:24:23;;;;;;;3.28;1.30;;;9.70;73.80;;;;;;2290543;56;21656;-70
2023/12/20 01:26:49;;;;;;;2.85;1.30;;;9.70;73.90;;;;;;2524690;54;21414;-70
2023/12/20 01:29:15;;;;;;;2.92;1.40;;;9.70;73.90;;;;;;2289304;56;20942;-70
2023/12/20 01:31:42;;;;;;;2.75;1.40;;;9.70;73.90;;;;;;2512495;54;21546;-70
2023/12/20 01:34:08;;;;;;;2.72;1.42;;;9.50;73.70;;;;;;2267987;56;20914;-71
2023/12/20 01:36:34;;;;;;;2.83;1.58;;;9.70;73.90;;;;;;2290145;56;20938;-70
2023/12/20 01:39:01;;;;;;;3.08;1.60;;;9.70;73.90;;;;;;2290132;56;20993;-70
2023/12/20 01:41:28;;;;;;;3.15;1.40;;;9.70;73.90;;;;;;2525693;54;21029;-70
2023/12/20 01:43:54;;;;;;;2.83;1.20;;;9.80;73.90;;;;;;2522329;54;21005;-70
2023/12/20 01:46:21;;;;;;;2.45;1.23;;;9.80;73.90;;;;;;2485614;54;20959;-70
2023/12/20 01:48:49;;;;;;;2.90;1.40;;;9.70;73.90;;;;;;2290356;56;21013;-70
2023/12/20 01:51:15;;;;;;;3.42;1.60;;;9.70;73.90;;;;;;2509851;54;21031;-71
2023/12/20 01:53:42;;;;;;;3.05;1.50;;;9.80;73.90;;;;;;2499399;54;21360;-71
2023/12/20 01:56:09;;;;;;;3.33;1.37;;;9.80;73.90;;;;;;2290587;56;21467;-70
2023/12/20 01:58:42;;;;;;;4.85;1.52;;;9.80;73.90;;;;;;2290791;55;22006;-70
2023/12/20 02:01:08;;;;;;;2.83;1.50;;;9.80;73.90;;;;;;2524867;54;20933;-71
2023/12/20 02:03:37;;;;;;;4.12;1.60;;;9.80;73.90;;;;;;2525222;54;20994;-71
2023/12/20 02:06:05;;;;;;;2.95;1.37;;;9.80;73.90;;;;;;2286584;55;21278;-71
2023/12/20 02:08:31;;;;;;;3.25;1.35;;;9.80;73.90;;;;;;2494841;54;20973;-71
2023/12/20 02:10:57;;;;;;;3.22;1.50;;;9.80;73.90;;;;;;2524898;54;20922;-71
2023/12/20 02:13:25;;;;;;;2.78;1.35;;;9.80;74.00;;;;;;2524564;54;21833;-71
2023/12/20 02:15:51;;;;;;;3.05;1.40;;;9.80;74.00;;;;;;2290337;56;21232;-70
2023/12/20 02:18:17;;;;;;;3.65;1.40;;;9.80;74.00;;;;;;2524568;54;20950;-70
2023/12/20 02:20:44;;;;;;;2.90;1.30;;;9.80;74.00;;;;;;2512973;54;21627;-71
2023/12/20 02:23:10;;;;;;;2.20;1.05;;;9.80;74.00;;;;;;2267144;56;20972;-71
2023/12/20 02:25:37;;;;;;;2.70;1.23;;;9.80;74.00;;;;;;2525104;54;20894;-70
2023/12/20 02:28:04;;;;;;;2.55;1.30;;;9.80;74.00;;;;;;2290211;56;20926;-71
2023/12/20 02:30:30;;;;;;;2.47;1.10;;;9.80;74.10;;;;;;2524646;54;21017;-71
2023/12/20 02:32:57;;;;;;;2.47;1.12;;;9.80;74.00;;;;;;2525616;54;20997;-71
2023/12/20 02:35:23;;;;;;;2.37;1.20;;;9.80;74.00;;;;;;2272436;56;21034;-71
2023/12/20 02:37:49;;;;;;;2.33;1.10;;;9.80;74.00;;;;;;2279019;56;20957;-71
2023/12/20 02:40:17;;;;;;;2.92;1.20;;;9.80;74.00;;;;;;2289969;56;21722;-71
2023/12/20 02:42:46;;;;;;;1.90;0.90;;;9.80;74.00;;;;;;2525034;54;21727;-71
2023/12/20 02:45:12;;;;;;;2.30;1.12;;;9.90;74.20;;;;;;2524949;54;21081;-71
2023/12/20 02:47:39;;;;;;;2.25;0.93;;;9.90;74.10;;;;;;2291013;56;20997;-71
2023/12/20 02:50:06;;;;;;;2.30;1.10;;;9.90;74.20;;;;;;2525285;54;21021;-72
2023/12/20 02:52:32;;;;;;;2.53;1.20;;;9.90;74.10;;;;;;2525274;54;21474;-71
2023/12/20 02:54:59;;;;;;;2.87;1.10;;;9.90;74.10;;;;;;2290379;55;21001;-72
2023/12/20 02:57:26;;;;;;;2.20;1.00;;;9.90;74.00;;;;;;2524831;54;21096;-71
2023/12/20 02:59:52;;;;;;;2.90;1.27;;;9.90;74.10;;;;;;2290609;56;21194;-71
2023/12/20 03:02:22;;;;;;;2.72;1.10;;;9.90;74.10;;;;;;2290051;56;20959;-71
2023/12/20 03:04:48;;;;;;;2.45;1.10;;;9.90;74.20;;;;;;2525185;54;20934;-71
2023/12/20 03:07:17;;;;;;;2.60;1.08;;;9.90;74.20;;;;;;2289678;56;20906;-71
2023/12/20 03:09:44;;;;;;;2.12;0.80;;;9.90;74.20;;;;;;2525455;54;21053;-71
2023/12/20 03:12:13;;;;;;;2.62;1.10;;;9.90;74.20;;;;;;2524402;54;21454;-71
2023/12/20 03:14:39;;;;;;;2.40;0.98;;;9.90;74.30;;;;;;2290487;56;20973;-71
2023/12/20 03:17:05;;;;;;;2.50;0.90;;;9.90;74.30;;;;;;2290712;56;20969;-70
2023/12/20 03:19:32;;;;;;;2.22;0.90;;;9.90;74.30;;;;;;2525201;54;20947;-70
2023/12/20 03:22:00;;;;;;;2.12;0.80;;;9.90;74.30;;;;;;2525179;54;20958;-71
2023/12/20 03:24:27;;;;;;;1.85;0.80;;;9.90;74.30;;;;;;2524729;54;20977;-71
2023/12/20 03:26:53;;;;;;;1.58;0.75;;;9.90;74.30;;;;;;2290255;56;20949;-71
2023/12/20 03:29:23;;;;;;;1.75;0.73;;;9.90;74.30;;;;;;2524560;54;20962;-71
2023/12/20 03:31:52;;;;;;;2.15;1.00;;;9.90;74.30;;;;;;2525509;54;20934;-72
2023/12/20 03:34:19;;;;;;;2.78;1.02;;;9.90;74.30;;;;;;2525505;54;21761;-72
2023/12/20 03:36:47;;;;;;;2.50;1.10;;;9.90;74.20;;;;;;2492355;54;21520;-72
2023/12/20 03:39:13;;;;;;;2.53;0.90;;;9.90;74.20;;;;;;2486857;54;21484;-71
2023/12/20 03:41:40;;;;;;;2.03;0.82;;;9.90;74.20;;;;;;2267931;56;20942;-71
2023/12/20 03:44:06;;;;;;;1.37;0.70;;;9.90;74.20;;;;;;2525554;54;21407;-70
2023/12/20 03:46:32;;;;;;;2.37;1.00;;;9.90;74.20;;;;;;2270318;56;21404;-71
2023/12/20 03:48:59;;;;;;;2.30;0.80;;;9.90;74.20;;;;;;2282297;56;20930;-71
2023/12/20 03:51:26;;;;;;;1.87;0.75;;;9.90;74.30;;;;;;2290384;56;20941;-72
2023/12/20 03:53:52;;;;;;;1.70;0.80;;;9.90;74.30;;;;;;2290946;56;21002;-71
2023/12/20 03:56:18;;;;;;;1.87;0.90;;;9.90;74.30;;;;;;2290221;56;21051;-72
2023/12/20 03:58:45;;;;;;;2.00;0.70;;;9.90;74.30;;;;;;2290490;56;20937;-70
2023/12/20 04:01:12;;;;;;;2.47;0.82;;;9.90;74.30;;;;;;2504302;54;21427;-71
2023/12/20 04:03:40;;;;;;;1.77;0.65;;;9.90;74.30;;;;;;2507913;54;21250;-71
2023/12/20 04:06:06;;;;;;;1.35;0.65;;;9.90;74.30;;;;;;2525473;54;20926;-71
2023/12/20 04:08:34;;;;;;;1.58;0.70;;;9.90;74.30;;;;;;2262713;55;20999;-71
2023/12/20 04:11:03;;;;;;;2.10;0.90;;;9.90;74.30;;;;;;2289440;56;20962;-70
2023/12/20 04:13:29;;;;;;;1.20;0.60;;;10.00;73.30;;;;;;2290947;56;20997;-71
2023/12/20 04:15:55;;;;;;;1.70;0.70;;;10.00;73.30;;;;;;2290692;56;20937;-70
2023/12/20 04:18:22;;;;;;;1.40;0.60;;;10.00;73.30;;;;;;2265350;56;20982;-70
2023/12/20 04:20:49;;;;;;;1.58;0.62;;;10.00;73.30;;;;;;2286417;56;21017;-71
2023/12/20 04:23:15;;;;;;;1.80;0.65;;;10.00;73.30;;;;;;2524774;54;20953;-69
2023/12/20 04:25:44;;;;;;;1.65;0.65;;;10.00;73.30;;;;;;2289989;56;20989;-70
2023/12/20 04:28:10;;;;;;;1.17;0.55;;;10.00;73.30;;;;;;2292277;55;20978;-72
2023/12/20 04:30:37;;;;;;;1.85;0.80;;;10.00;73.30;;;;;;2524630;54;20926;-71
2023/12/20 04:33:03;;;;;;;1.87;0.62;;;10.00;73.30;;;;;;2290744;55;20937;-70
2023/12/20 04:35:33;;;;;;;2.70;0.77;;;10.00;73.30;;;;;;2525642;54;20941;-71
2023/12/20 04:37:59;;;;;;;1.20;0.52;;;10.00;73.20;;;;;;2525050;54;21026;-71
2023/12/20 04:40:26;;;;;;;1.52;0.65;;;10.00;73.30;;;;;;2290553;56;20934;-71
2023/12/20 04:42:52;;;;;;;1.55;0.60;;;10.00;73.30;;;;;;2525590;54;20965;-71
2023/12/20 04:45:19;;;;;;;1.05;0.50;;;10.00;73.30;;;;;;2268472;55;20983;-71
2023/12/20 04:47:46;;;;;;;1.05;0.55;;;10.00;73.30;;;;;;2283411;56;20942;-71
2023/12/20 04:50:14;;;;;;;1.37;0.57;;;10.00;73.30;;;;;;2290941;56;21776;-71
2023/12/20 04:52:43;;;;;;;1.55;0.70;;;10.10;73.40;;;;;;2260442;55;20958;-70
2023/12/20 04:55:11;;;;;;;1.55;0.65;;;10.00;73.30;;;;;;2495509;54;20975;-71
2023/12/20 04:57:37;;;;;;;1.90;0.80;;;10.10;73.30;;;;;;2260003;55;20954;-72
2023/12/20 05:00:04;;;;;;;1.77;0.75;;;10.10;73.40;;;;;;2488827;54;20967;-71
2023/12/20 05:02:31;;;;;;;1.17;0.50;;;10.10;73.40;;;;;;2261312;55;21353;-71
2023/12/20 05:04:58;;;;;;;1.40;0.60;;;10.10;73.30;;;;;;2486445;54;20974;-71
2023/12/20 05:07:24;;;;;;;1.50;0.70;;;10.10;73.30;;;;;;2471791;54;21549;-71
2023/12/20 05:09:51;;;;;;;1.70;0.70;;;10.10;73.30;;;;;;2260220;56;21015;-71
2023/12/20 05:12:17;;;;;;;1.60;0.60;;;10.10;73.30;;;;;;2260702;56;20962;-70
2023/12/20 05:14:46;;;;;;;1.90;0.80;;;10.10;74.00;;;;;;2260343;56;21029;-70
2023/12/20 05:17:12;;;;;;;1.60;0.50;;;10.10;73.30;;;;;;2472650;55;21412;-71
2023/12/20 05:19:38;;;;;;;1.85;0.70;;;10.10;73.30;;;;;;2259566;55;20935;-71
2023/12/20 05:22:05;;;;;;;1.65;0.70;;;10.10;73.30;;;;;;2487761;55;20961;-71
2023/12/20 05:24:34;;;;;;;1.62;0.75;;;10.10;73.30;;;;;;2265409;56;21834;-70
2023/12/20 05:27:01;;;;;;;1.33;0.60;;;10.10;73.30;;;;;;2488995;55;21511;-71
2023/12/20 05:29:29;;;;;;;1.08;0.47;;;10.10;73.30;;;;;;2228365;56;21088;-71
2023/12/20 05:31:55;;;;;;;1.25;0.47;;;10.10;73.40;;;;;;2494539;54;20979;-71
2023/12/20 05:34:21;;;;;;;1.42;0.60;;;10.20;73.50;;;;;;2260913;55;21110;-70
2023/12/20 05:36:48;;;;;;;1.92;0.70;;;10.20;73.50;;;;;;2494661;55;21018;-71
2023/12/20 05:39:15;;;;;;;0.95;0.50;;;10.20;73.50;;;;;;2489142;55;20978;-71
2023/12/20 05:41:42;;;;;;;1.87;0.57;;;10.20;73.50;;;;;;2289346;55;21039;-70
2023/12/20 05:44:10;;;;;;;1.20;0.60;;;10.20;73.50;;;;;;2529149;54;20992;-71
2023/12/20 05:46:37;;;;;;;1.50;0.75;;;10.20;73.50;;;;;;2536709;54;21020;-70
2023/12/20 05:49:03;;;;;;;1.98;0.90;;;10.20;73.50;;;;;;2525646;54;21313;-70
2023/12/20 05:51:30;;;;;;;2.20;0.98;;;10.20;73.50;;;;;;2530273;54;21022;-71
2023/12/20 05:53:56;;;;;;;1.92;0.82;;;10.20;73.50;;;;;;2536452;54;21417;-70
2023/12/20 05:56:23;;;;;;;2.33;1.15;;;10.30;73.50;;;;;;2533558;54;21037;-71
2023/12/20 05:58:49;;;;;;;2.67;1.23;;;10.30;73.40;;;;;;2284488;56;20971;-70
2023/12/20 06:01:17;;;;;;;2.50;1.27;;;10.30;73.30;;;;;;2260722;56;20942;-71
2023/12/20 06:03:44;;;;;;;1.98;0.93;;;10.30;73.30;;;;;;2488918;54;21253;-71
2023/12/20 06:06:10;;;;;;;2.08;1.00;;;10.30;73.20;;;;;;2260082;56;21014;-70
2023/12/20 06:08:37;;;;;;;1.90;0.90;;;10.30;73.20;;;;;;2259464;55;21017;-71
2023/12/20 06:11:05;;;;;;;1.90;0.80;;;10.30;73.30;;;;;;2260134;55;21014;-71
2023/12/20 06:13:31;;;;;;;1.50;0.70;;;10.30;73.30;;;;;;2495061;55;20991;-70
2023/12/20 06:15:57;;;;;;;1.98;0.88;;;10.30;73.30;;;;;;2260312;55;20963;-71
2023/12/20 06:18:24;;;;;;;3.33;1.77;;;10.30;73.30;;;;;;2519994;54;21489;-71
2023/12/20 06:20:50;;;;;;;3.85;2.25;;;10.30;74.10;;;;;;2536507;54;21004;-70
2023/12/20 06:23:17;;;;;;;4.90;3.30;;;10.30;73.40;;;;;;2299539;55;20964;-71
2023/12/20 06:25:45;;;;;;;4.12;2.58;;;10.30;73.50;;;;;;2299264;56;21566;-71
2023/12/20 06:28:14;;;;;;;3.30;1.90;;;10.30;73.40;;;;;;2299518;55;21377;-70
2023/12/20 06:30:40;;;;;;;3.25;1.73;;;10.30;73.40;;;;;;2295875;56;21275;-71
2023/12/20 06:33:06;;;;;;;3.87;2.28;;;10.30;73.40;;;;;;2498273;54;20971;-72
2023/12/20 06:35:33;;;;;;;5.62;2.15;;;10.30;73.40;;;;;;2520832;54;21031;-71
2023/12/20 06:38:01;;;;;;;3.20;1.65;;;10.30;73.30;;;;;;2536766;54;21512;-71
2023/12/20 06:40:29;;;;;;;2.55;1.27;;;10.40;73.30;;;;;;2299491;56;21307;-71
2023/12/20 06:42:56;;;;;;;2.90;1.30;;;10.40;73.30;;;;;;2537018;54;21011;-71
2023/12/20 06:45:24;;;;;;;2.60;1.20;;;10.40;73.30;;;;;;2300081;56;21019;-71
2023/12/20 06:47:50;;;;;;;1.90;0.80;;;10.40;73.40;;;;;;2299908;56;20959;-71
2023/12/20 06:50:17;;;;;;;1.70;0.75;;;10.30;73.30;;;;;;2299673;55;20983;-71
2023/12/20 06:52:43;;;;;;;1.58;0.60;;;10.40;73.30;;;;;;2536305;54;21082;-70
2023/12/20 06:55:12;;;;;;;2.45;1.20;;;10.40;73.30;;;;;;2299181;56;20956;-71
2023/12/20 06:57:38;;;;;;;1.37;0.62;;;10.40;73.30;;;;;;2520321;54;20997;-71
2023/12/20 07:00:05;;;;;;;2.03;0.70;;;10.40;73.30;;;;;;2534377;54;20976;-71
2023/12/20 07:02:33;;;;;;;1.50;0.60;;;10.40;73.30;;;;;;2536704;54;21074;-71
2023/12/20 07:05:02;;;;;;;1.30;0.60;;;10.40;73.30;;;;;;2300138;56;21023;-72
2023/12/20 07:07:28;;;;;;;1.58;0.68;;;10.40;73.30;;;;;;2300314;55;21432;-71
2023/12/20 07:09:55;;;;;;;1.48;0.70;;;10.40;73.30;;;;;;2299760;56;20995;-71
2023/12/20 07:12:21;;;;;;;1.55;0.70;;;10.40;73.20;;;;;;2534140;54;21889;-71
2023/12/20 07:14:47;;;;;;;1.73;0.75;;;10.40;73.20;;;;;;2525977;54;20948;-72
2023/12/20 07:17:16;;;;;;;3.17;0.80;;;10.40;73.20;;;;;;2299968;56;20932;-71
2023/12/20 07:19:43;;;;;;;2.55;0.90;;;10.40;73.30;;;;;;2536906;54;20991;-70
2023/12/20 07:22:09;;;;;;;1.95;0.95;;;10.40;73.30;;;;;;2292985;55;21345;-71
2023/12/20 07:24:35;;;;;;;2.40;1.10;;;10.50;73.40;;;;;;2534342;54;21766;-71
2023/12/20 07:27:02;;;;;;;2.50;1.10;;;10.40;73.30;;;;;;2536993;54;21184;-71
2023/12/20 07:29:29;;;;;;;1.95;0.88;;;10.40;73.20;;;;;;2536569;54;20987;-71
2023/12/20 07:31:56;;;;;;;2.20;1.00;;;10.40;73.20;;;;;;2299565;56;21027;-70
2023/12/20 07:34:23;;;;;;;1.50;0.70;;;10.50;73.30;;;;;;2536849;54;21031;-71
2023/12/20 07:36:49;;;;;;;1.87;0.80;;;10.40;73.20;;;;;;2488939;54;20986;-71
2023/12/20 07:39:15;;;;;;;1.33;0.65;;;10.40;73.20;;;;;;2489162;54;21730;-72
2023/12/20 07:41:42;;;;;;;2.05;0.82;;;10.40;73.20;;;;;;2249553;56;20971;-70
2023/12/20 07:44:10;;;;;;;1.77;0.80;;;10.50;73.30;;;;;;2258961;56;20945;-71
2023/12/20 07:46:38;;;;;;;1.98;0.90;;;10.40;73.20;;;;;;2480150;55;20946;-71
2023/12/20 07:49:05;;;;;;;3.08;1.40;;;10.50;73.30;;;;;;2488186;54;20949;-71
2023/12/20 07:51:31;;;;;;;2.62;1.42;;;10.40;73.20;;;;;;2489402;55;21017;-70
2023/12/20 07:53:58;;;;;;;3.40;1.60;;;10.50;73.20;;;;;;2259769;56;21603;-71
2023/12/20 07:56:24;;;;;;;3.65;1.80;;;10.50;73.20;;;;;;2495616;54;20962;-71
2023/12/20 07:58:53;;;;;;;5.18;1.87;;;10.50;73.30;;;;;;2501845;54;21491;-71
2023/12/20 08:01:19;;;;;;;3.75;1.80;;;10.50;73.40;;;;;;2266347;55;20989;-71
2023/12/20 08:03:47;;;;;;;4.07;1.80;;;10.50;73.40;;;;;;2260298;55;21322;-71
2023/12/20 08:06:17;;;;;;;3.85;2.00;;;10.50;73.50;;;;;;2488766;55;21022;-72
2023/12/20 08:08:44;;;;;;;3.03;1.50;;;10.50;73.50;;;;;;2260647;56;21073;-70
2023/12/20 08:11:14;;;;;;;3.78;1.90;;;10.50;73.50;;;;;;2489078;54;21043;-70
2023/12/20 08:13:40;;;;;;;3.28;1.65;;;10.50;73.50;;;;;;2489083;54;21452;-72
2023/12/20 08:16:13;;;;;;;2.87;1.62;;;10.50;73.50;;;;;;2260115;56;21571;-71
2023/12/20 08:18:40;;;;;;;2.60;1.30;;;10.60;73.70;;;;;;2488871;54;20966;-73
2023/12/20 08:21:08;;;;;;;3.17;1.50;;;10.60;73.60;;;;;;2488994;54;20970;-71
2023/12/20 08:23:34;;;;;;;2.47;1.00;;;10.60;73.70;;;;;;2489232;54;20946;-71
2023/12/20 08:26:06;;;;;;;2.83;1.42;;;10.60;73.80;;;;;;2259960;56;21072;-71
2023/12/20 08:28:32;;;;;;;2.17;0.98;;;10.60;73.70;;;;;;2487751;54;20930;-71
2023/12/20 08:30:58;;;;;;;1.95;0.75;;;10.60;73.60;;;;;;2259605;56;21204;-71
2023/12/20 08:33:25;;;;;;;1.85;0.88;;;10.60;73.60;;;;;;2260294;56;21023;-71
2023/12/20 08:35:51;;;;;;;2.22;0.93;;;10.60;73.60;;;;;;2260557;56;20958;-72
2023/12/20 08:38:17;;;;;;;2.70;1.00;;;10.60;73.40;;;;;;2489615;54;20962;-73
2023/12/20 08:40:45;;;;;;;1.83;0.85;;;10.70;73.50;;;;;;2260573;56;20963;-72
2023/12/20 08:43:11;;;;;;;3.83;1.42;;;10.60;73.50;;;;;;2489025;54;21062;-72
2023/12/20 08:45:38;;;;;;;3.12;1.50;;;10.60;73.50;;;;;;2489969;55;21011;-72
2023/12/20 08:48:05;;;;;;;3.55;1.52;;;10.60;73.40;;;;;;2488639;55;20966;-72
2023/12/20 08:50:33;;;;;;;3.00;1.20;;;10.60;73.50;;;;;;2489904;54;20970;-71
2023/12/20 08:53:00;;;;;;;3.67;1.42;;;10.70;73.50;;;;;;2488976;55;20947;-72
2023/12/20 08:55:28;;;;;;;2.72;1.20;;;10.80;73.60;;;;;;2489666;55;20942;-72
2023/12/20 08:57:56;;;;;;;2.55;1.00;;;10.70;73.50;;;;;;2260262;55;20958;-72
2023/12/20 09:00:27;;;;;;;2.28;1.12;;;10.80;73.70;;;;;;2271415;55;20988;-72
2023/12/20 09:02:54;;;;;;;2.78;1.23;;;10.70;73.60;;;;;;2265221;56;20986;-73
2023/12/20 09:05:22;;;;;;;2.87;1.48;;;10.70;73.60;;;;;;2261394;55;21029;-72
2023/12/20 09:07:48;;;;;;;4.53;2.03;;;10.80;73.70;;;;;;2495403;55;20962;-72
2023/12/20 09:10:15;;;;;;;4.75;2.75;;;10.70;73.60;;;;;;2488748;55;20958;-72
2023/12/20 09:12:43;;;;;;;6.35;3.65;;;10.80;73.70;;;;;;2495754;55;20992;-72
2023/12/20 09:15:09;;;;;;;6.50;3.97;;;10.80;73.70;;;;;;2488467;55;20962;-71
2023/12/20 09:17:35;;;;;;;10.10;5.75;;;10.70;73.60;;;;;;2266831;56;20976;-72
2023/12/20 09:20:02;;;;;;;5.85;4.05;;;10.80;73.70;;;;;;2260091;56;20963;-71
2023/12/20 09:22:28;;;;;;;6.60;3.83;;;10.70;73.50;;;;;;2260570;56;21039;-72
2023/12/20 09:24:56;;;;;;;5.75;3.30;;;10.80;73.50;;;;;;2495395;55;21314;-73
2023/12/20 09:27:22;;;;;;;4.35;2.62;;;10.80;73.10;;;;;;2489321;55;21366;-71
2023/12/20 09:29:49;;;;;;;3.55;2.15;;;10.70;72.80;;;;;;2265760;56;20962;-71
2023/12/20 09:32:16;;;;;;;3.47;1.92;;;10.70;72.80;;;;;;2488715;55;20994;-72
2023/12/20 09:34:43;;;;;;;3.20;1.85;;;10.70;72.80;;;;;;2266033;56;21515;-72
2023/12/20 09:37:09;;;;;;;3.95;1.87;;;10.50;72.70;;;;;;2488611;55;20934;-72
2023/12/20 09:39:37;;;;;;;2.80;1.50;;;10.70;73.00;;;;;;2488747;55;20938;-72
2023/12/20 09:42:05;;;;;;;2.70;1.50;;;10.70;73.00;;;;;;2488576;55;20962;-72
2023/12/20 09:44:31;;;;;;;3.33;1.23;;;10.70;73.10;;;;;;2255311;55;21010;-71
2023/12/20 09:46:58;;;;;;;3.05;1.62;;;10.70;73.10;;;;;;2488523;54;20935;-70
2023/12/20 09:49:27;;;;;;;3.65;1.55;;;10.60;73.10;;;;;;2261781;56;20971;-72
2023/12/20 09:51:54;;;;;;;3.62;1.60;;;10.60;73.00;;;;;;2485865;54;21019;-72
2023/12/20 09:54:20;;;;;;;3.75;1.90;;;10.60;73.20;;;;;;2252373;55;21022;-72
2023/12/20 09:56:47;;;;;;;3.83;2.10;;;10.60;73.20;;;;;;2260064;56;20994;-71
2023/12/20 09:59:14;;;;;;;4.22;1.75;;;10.60;73.20;;;;;;2265711;55;20974;-71
2023/12/20 10:01:43;;;;;;;4.12;1.60;;;10.60;73.30;;;;;;2260846;55;20967;-72
2023/12/20 10:04:12;;;;;;;4.22;2.45;;;10.60;73.30;;;;;;2449634;54;21430;-72
2023/12/20 10:06:40;;;;;;;6.00;1.98;;;10.60;73.30;;;;;;2265539;56;20962;-72
2023/12/20 10:09:06;;;;;;;4.12;2.05;;;10.60;73.30;;;;;;2259087;56;21346;-72
2023/12/20 10:11:34;;;;;;;3.70;1.80;;;10.60;73.20;;;;;;2236283;56;21031;-72
2023/12/20 10:14:01;;;;;;;4.10;2.10;;;10.60;73.10;;;;;;2467584;54;21043;-72
2023/12/20 10:16:28;;;;;;;4.85;2.50;;;10.60;73.20;;;;;;2260850;56;20946;-72
2023/12/20 10:18:55;;;;;;;4.82;2.70;;;10.70;73.30;;;;;;2488603;54;20991;-72
2023/12/20 10:21:22;;;;;;;5.75;2.53;;;10.60;73.00;;;;;;2260179;56;21033;-72
2023/12/20 10:23:52;;;;;;;4.43;2.10;;;10.70;73.10;;;;;;2489841;54;20982;-72
2023/12/20 10:26:27;;;;;;;4.18;2.08;;;10.70;73.10;;;;;;2260521;56;20936;-71
2023/12/20 10:28:59;;;;;;;3.72;2.20;;;10.70;73.10;;;;;;2488930;55;20971;-72
2023/12/20 10:31:33;;;;;;;6.65;3.05;;;10.70;73.20;;;;;;2489412;54;20986;-73
2023/12/20 10:34:00;;;;;;;4.40;2.17;;;10.70;73.00;;;;;;2489466;54;20976;-71
2023/12/20 10:36:27;;;;;;;4.85;2.75;;;10.70;73.20;;;;;;2260867;56;21046;-71
2023/12/20 10:38:54;;;;;;;4.57;2.30;;;10.60;73.10;;;;;;2487967;54;20979;-71
2023/12/20 10:41:24;;;;;;;5.15;1.87;;;10.70;73.10;;;;;;2487376;54;21002;-71
2023/12/20 10:43:52;;;;;;;4.28;2.00;;;10.70;72.90;;;;;;2490325;55;20971;-71
2023/12/20 10:46:21;;;;;;;5.22;1.80;;;10.70;72.90;;;;;;2262615;56;20979;-73
2023/12/20 10:48:47;;;;;;;4.78;1.62;;;10.70;73.00;;;;;;2261082;55;21085;-72
2023/12/20 10:51:16;;;;;;;6.00;1.58;;;10.70;73.00;;;;;;2495669;54;21038;-71
2023/12/20 10:53:43;;;;;;;3.75;1.52;;;10.70;72.90;;;;;;2286706;55;20967;-72
2023/12/20 10:56:09;;;;;;;4.05;1.45;;;10.70;72.70;;;;;;2537018;54;20975;-72
2023/12/20 10:58:35;;;;;;;3.45;1.40;;;10.70;72.50;;;;;;2300479;56;21049;-71
2023/12/20 11:01:02;;;;;;;4.00;1.60;;;10.70;72.50;;;;;;2522019;54;20935;-72
2023/12/20 11:03:29;;;;;;;5.25;1.70;;;10.70;72.50;;;;;;2299902;55;20967;-71
2023/12/20 11:06:27;;;;;;;4.30;1.65;;;10.70;72.40;;;;;;2536097;54;21063;-71
2023/12/20 11:09:14;;;;;;;4.05;1.27;;;10.70;72.10;;;;;;2299622;56;20963;-71
2023/12/20 11:14:22;;;;;;;3.90;1.58;;;10.80;72.20;;;;;;2537146;54;20947;-71
2023/12/20 11:16:49;;;;;;;4.80;1.50;;;10.80;71.80;;;;;;2536960;54;21914;-71
2023/12/20 11:19:20;;;;;;;4.32;1.35;;;10.80;72.90;;;;;;2536347;54;20971;-70
2023/12/20 11:21:46;;;;;;;5.47;1.60;;;10.80;73.00;;;;;;2299468;56;20951;-71
2023/12/20 11:24:13;;;;;;;3.65;1.40;;;10.80;72.80;;;;;;2298827;56;21227;-71
2023/12/20 11:26:46;;;;;;;4.07;1.40;;;10.80;72.70;;;;;;2537060;54;21007;-72
2023/12/20 11:29:35;;;;;;;3.50;1.30;;;10.80;72.50;;;;;;2298360;56;21030;-71
2023/12/20 11:32:02;;;;;;;4.28;1.83;;;10.90;71.80;;;;;;2536265;54;20975;-71
2023/12/20 11:34:33;;;;;;;3.60;1.40;;;10.90;72.30;;;;;;2298982;56;20975;-70
2023/12/20 11:37:02;;;;;;;7.75;2.92;;;10.80;71.90;;;;;;2536227;54;20967;-71
2023/12/20 11:39:30;;;;;;;29.40;17.10;;;10.90;71.80;;;;;;2525763;54;20974;-71
2023/12/20 11:41:57;;;;;;;18.05;9.75;;;10.80;71.70;;;;;;2269865;55;20967;-70
2023/12/20 11:44:25;;;;;;;12.35;7.15;;;10.80;71.70;;;;;;2536356;54;21108;-70
2023/12/20 11:46:51;;;;;;;9.68;4.82;;;10.80;71.60;;;;;;2536907;54;21007;-71
2023/12/20 11:49:17;;;;;;;14.00;5.85;;;10.80;71.60;;;;;;2298973;56;20979;-70
2023/12/20 11:51:44;;;;;;;8.40;3.70;;;10.80;71.60;;;;;;2299993;56;20951;-69
2023/12/20 11:54:11;;;;;;;9.38;3.12;;;10.80;71.70;;;;;;2299352;55;20996;-70
2023/12/20 11:56:37;;;;;;;7.97;2.90;;;10.80;71.60;;;;;;2299384;55;21607;-70
2023/12/20 11:59:04;;;;;;;4.75;1.83;;;10.80;71.60;;;;;;2299011;56;21043;-70
2023/12/20 12:01:35;;;;;;;5.93;3.92;;;10.80;71.40;;;;;;2299879;56;21022;-71
2023/12/20 12:04:10;;;;;;;7.47;3.62;;;10.80;71.30;;;;;;2528542;54;21109;-70
2023/12/20 12:06:36;;;;;;;5.72;2.78;;;10.80;71.00;;;;;;2527430;54;20947;-70
2023/12/20 12:09:04;;;;;;;7.00;2.33;;;10.70;71.40;;;;;;2299387;56;21018;-70
2023/12/20 12:11:30;;;;;;;5.95;2.00;;;10.70;71.30;;;;;;2290591;55;20989;-70
2023/12/20 12:13:57;;;;;;;2.92;1.40;;;10.70;71.40;;;;;;2534063;54;20966;-71
2023/12/20 12:16:23;;;;;;;5.28;1.62;;;10.80;71.40;;;;;;2299614;56;20987;-70
2023/12/20 12:18:57;;;;;;;4.20;1.42;;;10.70;71.20;;;;;;2299375;56;21078;-70
2023/12/20 12:21:24;;;;;;;6.68;1.60;;;10.70;71.10;;;;;;2525558;54;20949;-69
2023/12/20 12:24:06;;;;;;;6.35;1.48;;;10.70;71.70;;;;;;2530072;54;21453;-70
2023/12/20 12:26:32;;;;;;;3.17;0.90;;;10.70;71.00;;;;;;2536736;54;20984;-70
2023/12/20 12:28:59;;;;;;;7.20;1.92;;;10.70;71.50;;;;;;2271561;56;21116;-70
2023/12/20 12:31:26;;;;;;;4.05;1.30;;;10.70;71.50;;;;;;2530562;54;21000;-70
2023/12/20 12:33:54;;;;;;;4.20;1.25;;;10.70;71.40;;;;;;2537182;54;21051;-70
2023/12/20 12:36:21;;;;;;;4.43;1.40;;;10.70;71.50;;;;;;2299718;56;21397;-71
2023/12/20 12:38:47;;;;;;;7.85;1.95;;;10.70;71.60;;;;;;2300339;55;20923;-70
2023/12/20 12:41:15;;;;;;;3.85;1.48;;;10.70;71.40;;;;;;2536011;54;20971;-71
2023/12/20 12:43:41;;;;;;;4.20;1.27;;;10.70;71.40;;;;;;2299750;56;20967;-71
2023/12/20 12:46:08;;;;;;;2.80;1.02;;;10.70;71.50;;;;;;2535529;54;21011;-70
2023/12/20 12:48:34;;;;;;;5.87;1.30;;;10.70;71.50;;;;;;2537133;54;21002;-71
2023/12/20 12:51:01;;;;;;;6.15;1.33;;;10.70;71.50;;;;;;2299486;55;21047;-71
2023/12/20 12:53:27;;;;;;;3.53;1.30;;;10.70;71.40;;;;;;2537065;54;20951;-71